Aeroporto :
LOGIN :

Iscrizione | Disclaimer

   EN    FR    IT 

 










Sommario :    VFR   VFR Marginale   IFR   IFR Intensivo   IFR Molto Intensivo
Visibilità : 
Base nubi : 
>= 8 km
>= 3000ft
5 / 8 km
1000 / 3000 ft
1500m / 5 km
500 / 1000 ft
800 / 1500m
200 / 500 ft
< 800m
< 200 ft
Simboli :   Temporali  Nebbia  Neve Forte  Precipitazioni Forti  Vento > 20 kt
SIGMETs :   Varie  Temporali  Ghiacco  Turbolenza  Onda orograficha  Ceneri Vulcaniche






- Altitudine del aeroporto : 2077 ft
- Codice IATA : FMM


EDJA - Memmingen

ULTIMO METAR :
  • 092050Z 25011KT 9999 BKN019 BKN022 OVC027 04/02 Q1012

METARs OBSOLETI :
  • 092020Z 27014KT 9999 FEW019 BKN022 OVC028 04/02 Q1011
  • 091950Z 27014KT 9999 BKN013 OVC023 04/02 Q1010
  • 091920Z 26014KT 9999 BKN013 OVC020 04/03 Q1009
  • 091850Z 24013KT 9999 -SHRA BKN012TCU OVC018 04/02 Q1008
  • 091820Z 23015KT 9999 -SHRA BKN010 OVC019 04/02 Q1008

TAF TAF EDJA
Valido dal 09 a 18 ore il 10 a 03 ore UTC


091700Z 0918/1003 22011KT 9999 BKN020
TEMPO 0918/0922 24015G25KT 4000 SHRA BKN012TCU
TEMPO 0922/1003 2000 -SHSN BKN006 BKN012TCU
BECMG 1001/1003 30010KT



MetMap, La meteo Aeronautica in un colpo d'occhio ! - Copyright ORBIFLY Dicembre 2007 - Disclaimer

ORBIFLY MET'MAP TEAM :

Programmazione e sviluppo : Alexandra Zaïnal
Concezione : Baudouin d'Aumeries
Aiuto per la programmazione : Marc-Olivier Méhu
Supporto tecnico e logistico : Manuel Goepfert
Aiuto per la traduzione : Arnaldo La Scala

Contatto : metmap@orbifly.com




FONTI E CREDITI :

   NOAA